sensor_id;sensor_type;location;lat;lon;timestamp;P1;durP1;ratioP1;P2;durP2;ratioP2
12425;SDS011;6277;49.824;9.562;2023-02-24T00:01:25;13.68;;;8.30;;
12425;SDS011;6277;49.824;9.562;2023-02-24T00:03:56;12.40;;;7.55;;
12425;SDS011;6277;49.824;9.562;2023-02-24T00:06:23;13.90;;;8.75;;
12425;SDS011;6277;49.824;9.562;2023-02-24T00:08:50;14.15;;;8.57;;
12425;SDS011;6277;49.824;9.562;2023-02-24T00:11:17;14.07;;;8.98;;
12425;SDS011;6277;49.824;9.562;2023-02-24T00:13:43;14.65;;;8.45;;
12425;SDS011;6277;49.824;9.562;2023-02-24T00:16:10;12.63;;;8.10;;
12425;SDS011;6277;49.824;9.562;2023-02-24T00:18:44;13.82;;;8.73;;
12425;SDS011;6277;49.824;9.562;2023-02-24T00:21:13;15.15;;;8.60;;
12425;SDS011;6277;49.824;9.562;2023-02-24T00:23:43;14.57;;;8.20;;
12425;SDS011;6277;49.824;9.562;2023-02-24T00:26:11;14.23;;;8.50;;
12425;SDS011;6277;49.824;9.562;2023-02-24T00:28:38;16.25;;;8.95;;
12425;SDS011;6277;49.824;9.562;2023-02-24T00:31:15;14.95;;;9.23;;
12425;SDS011;6277;49.824;9.562;2023-02-24T00:33:43;12.43;;;8.13;;
12425;SDS011;6277;49.824;9.562;2023-02-24T00:36:11;14.02;;;9.38;;
12425;SDS011;6277;49.824;9.562;2023-02-24T00:38:39;16.55;;;10.30;;
12425;SDS011;6277;49.824;9.562;2023-02-24T00:41:12;14.45;;;8.73;;
12425;SDS011;6277;49.824;9.562;2023-02-24T00:43:40;16.50;;;10.48;;
12425;SDS011;6277;49.824;9.562;2023-02-24T00:46:11;16.38;;;9.65;;
12425;SDS011;6277;49.824;9.562;2023-02-24T00:48:38;17.73;;;11.27;;
12425;SDS011;6277;49.824;9.562;2023-02-24T00:51:11;20.00;;;12.32;;
12425;SDS011;6277;49.824;9.562;2023-02-24T00:53:40;18.70;;;11.25;;
12425;SDS011;6277;49.824;9.562;2023-02-24T00:56:06;19.50;;;11.57;;
12425;SDS011;6277;49.824;9.562;2023-02-24T00:58:42;19.65;;;12.15;;
12425;SDS011;6277;49.824;9.562;2023-02-24T01:01:21;19.92;;;11.82;;
12425;SDS011;6277;49.824;9.562;2023-02-24T01:03:49;21.35;;;12.38;;
12425;SDS011;6277;49.824;9.562;2023-02-24T01:06:18;21.13;;;12.82;;
12425;SDS011;6277;49.824;9.562;2023-02-24T01:08:46;20.75;;;12.98;;
12425;SDS011;6277;49.824;9.562;2023-02-24T01:11:14;22.00;;;13.70;;
12425;SDS011;6277;49.824;9.562;2023-02-24T01:13:59;21.02;;;13.13;;
12425;SDS011;6277;49.824;9.562;2023-02-24T01:16:27;24.80;;;14.07;;
12425;SDS011;6277;49.824;9.562;2023-02-24T01:18:53;22.33;;;13.23;;
12425;SDS011;6277;49.824;9.562;2023-02-24T01:21:19;23.63;;;13.95;;
12425;SDS011;6277;49.824;9.562;2023-02-24T01:23:49;23.20;;;13.68;;
12425;SDS011;6277;49.824;9.562;2023-02-24T01:26:15;22.83;;;14.00;;
12425;SDS011;6277;49.824;9.562;2023-02-24T01:28:42;23.73;;;13.55;;
12425;SDS011;6277;49.824;9.562;2023-02-24T01:31:10;20.83;;;13.68;;
12425;SDS011;6277;49.824;9.562;2023-02-24T01:33:36;25.38;;;14.38;;
12425;SDS011;6277;49.824;9.562;2023-02-24T01:36:10;21.13;;;13.48;;
12425;SDS011;6277;49.824;9.562;2023-02-24T01:38:38;20.67;;;13.32;;
12425;SDS011;6277;49.824;9.562;2023-02-24T01:41:07;20.77;;;13.40;;
12425;SDS011;6277;49.824;9.562;2023-02-24T01:46:26;21.55;;;12.30;;
12425;SDS011;6277;49.824;9.562;2023-02-24T01:49:11;21.10;;;12.77;;
12425;SDS011;6277;49.824;9.562;2023-02-24T01:54:24;18.65;;;11.63;;
12425;SDS011;6277;49.824;9.562;2023-02-24T01:56:52;20.27;;;11.88;;
12425;SDS011;6277;49.824;9.562;2023-02-24T01:59:20;18.52;;;11.70;;
12425;SDS011;6277;49.824;9.562;2023-02-24T02:01:47;18.25;;;11.25;;
12425;SDS011;6277;49.824;9.562;2023-02-24T02:04:19;18.15;;;10.80;;
12425;SDS011;6277;49.824;9.562;2023-02-24T02:06:55;16.50;;;10.30;;
12425;SDS011;6277;49.824;9.562;2023-02-24T02:09:22;16.77;;;10.65;;
12425;SDS011;6277;49.824;9.562;2023-02-24T02:11:47;17.20;;;11.48;;
12425;SDS011;6277;49.824;9.562;2023-02-24T02:14:20;19.15;;;11.48;;
12425;SDS011;6277;49.824;9.562;2023-02-24T02:17:02;20.88;;;12.88;;
12425;SDS011;6277;49.824;9.562;2023-02-24T02:28:41;21.25;;;12.52;;
12425;SDS011;6277;49.824;9.562;2023-02-24T02:42:29;16.55;;;10.10;;
12425;SDS011;6277;49.824;9.562;2023-02-24T02:45:20;18.85;;;11.00;;
12425;SDS011;6277;49.824;9.562;2023-02-24T02:48:12;17.25;;;11.02;;
12425;SDS011;6277;49.824;9.562;2023-02-24T02:50:56;16.77;;;10.52;;
12425;SDS011;6277;49.824;9.562;2023-02-24T02:53:33;17.50;;;10.13;;
12425;SDS011;6277;49.824;9.562;2023-02-24T02:56:11;17.88;;;10.95;;
12425;SDS011;6277;49.824;9.562;2023-02-24T02:58:57;18.17;;;10.75;;
12425;SDS011;6277;49.824;9.562;2023-02-24T03:01:27;18.05;;;10.48;;
12425;SDS011;6277;49.824;9.562;2023-02-24T03:03:57;17.10;;;10.20;;
12425;SDS011;6277;49.824;9.562;2023-02-24T03:06:26;16.15;;;9.70;;
12425;SDS011;6277;49.824;9.562;2023-02-24T03:09:19;18.60;;;9.93;;
12425;SDS011;6277;49.824;9.562;2023-02-24T03:11:50;15.38;;;9.80;;
12425;SDS011;6277;49.824;9.562;2023-02-24T03:14:21;16.40;;;10.50;;
12425;SDS011;6277;49.824;9.562;2023-02-24T03:16:50;15.20;;;9.98;;
12425;SDS011;6277;49.824;9.562;2023-02-24T03:19:19;17.00;;;10.13;;
12425;SDS011;6277;49.824;9.562;2023-02-24T03:24:48;16.80;;;10.13;;
12425;SDS011;6277;49.824;9.562;2023-02-24T03:27:27;16.15;;;9.88;;
12425;SDS011;6277;49.824;9.562;2023-02-24T03:33:21;18.10;;;10.27;;
12425;SDS011;6277;49.824;9.562;2023-02-24T03:35:53;18.75;;;10.38;;
12425;SDS011;6277;49.824;9.562;2023-02-24T03:38:25;17.27;;;10.05;;
12425;SDS011;6277;49.824;9.562;2023-02-24T03:40:52;16.67;;;9.80;;
12425;SDS011;6277;49.824;9.562;2023-02-24T03:43:31;16.80;;;10.25;;
12425;SDS011;6277;49.824;9.562;2023-02-24T03:45:59;17.00;;;10.38;;
12425;SDS011;6277;49.824;9.562;2023-02-24T03:48:28;15.98;;;9.98;;
12425;SDS011;6277;49.824;9.562;2023-02-24T03:50:54;14.85;;;9.40;;
12425;SDS011;6277;49.824;9.562;2023-02-24T03:53:24;16.27;;;9.90;;
12425;SDS011;6277;49.824;9.562;2023-02-24T03:56:17;17.67;;;10.35;;
12425;SDS011;6277;49.824;9.562;2023-02-24T04:04:14;18.95;;;10.10;;
12425;SDS011;6277;49.824;9.562;2023-02-24T04:06:46;17.98;;;9.80;;
12425;SDS011;6277;49.824;9.562;2023-02-24T04:09:25;16.27;;;9.57;;
12425;SDS011;6277;49.824;9.562;2023-02-24T04:17:24;17.73;;;10.75;;
12425;SDS011;6277;49.824;9.562;2023-02-24T04:19:55;17.73;;;10.85;;
12425;SDS011;6277;49.824;9.562;2023-02-24T04:22:25;17.13;;;10.27;;
12425;SDS011;6277;49.824;9.562;2023-02-24T04:24:55;18.75;;;10.77;;
12425;SDS011;6277;49.824;9.562;2023-02-24T04:27:23;17.88;;;10.82;;
12425;SDS011;6277;49.824;9.562;2023-02-24T04:29:53;16.83;;;10.60;;
12425;SDS011;6277;49.824;9.562;2023-02-24T04:32:22;16.65;;;10.02;;
12425;SDS011;6277;49.824;9.562;2023-02-24T04:34:50;16.60;;;9.05;;
12425;SDS011;6277;49.824;9.562;2023-02-24T04:37:16;16.02;;;9.60;;
12425;SDS011;6277;49.824;9.562;2023-02-24T04:39:46;14.75;;;8.90;;
12425;SDS011;6277;49.824;9.562;2023-02-24T04:42:14;17.02;;;9.18;;
12425;SDS011;6277;49.824;9.562;2023-02-24T04:44:41;16.42;;;9.25;;
12425;SDS011;6277;49.824;9.562;2023-02-24T04:47:08;16.77;;;9.43;;
12425;SDS011;6277;49.824;9.562;2023-02-24T04:49:34;16.58;;;9.63;;
12425;SDS011;6277;49.824;9.562;2023-02-24T04:52:00;20.55;;;10.63;;
12425;SDS011;6277;49.824;9.562;2023-02-24T04:54:26;18.65;;;9.93;;
12425;SDS011;6277;49.824;9.562;2023-02-24T04:56:53;18.38;;;10.05;;
12425;SDS011;6277;49.824;9.562;2023-02-24T04:59:20;16.70;;;9.27;;
12425;SDS011;6277;49.824;9.562;2023-02-24T05:01:46;17.15;;;9.73;;
12425;SDS011;6277;49.824;9.562;2023-02-24T05:04:15;17.60;;;9.40;;
12425;SDS011;6277;49.824;9.562;2023-02-24T05:06:42;18.52;;;9.80;;
12425;SDS011;6277;49.824;9.562;2023-02-24T05:09:12;14.73;;;8.85;;
12425;SDS011;6277;49.824;9.562;2023-02-24T05:11:41;15.10;;;8.85;;
12425;SDS011;6277;49.824;9.562;2023-02-24T05:14:08;17.58;;;9.90;;
12425;SDS011;6277;49.824;9.562;2023-02-24T05:16:38;16.13;;;8.85;;
12425;SDS011;6277;49.824;9.562;2023-02-24T05:19:09;14.85;;;8.45;;
12425;SDS011;6277;49.824;9.562;2023-02-24T05:21:54;17.95;;;9.23;;
12425;SDS011;6277;49.824;9.562;2023-02-24T05:24:21;15.38;;;8.77;;
12425;SDS011;6277;49.824;9.562;2023-02-24T05:26:52;15.25;;;9.20;;
12425;SDS011;6277;49.824;9.562;2023-02-24T05:29:22;15.52;;;8.88;;
12425;SDS011;6277;49.824;9.562;2023-02-24T05:31:50;15.00;;;8.15;;
12425;SDS011;6277;49.824;9.562;2023-02-24T05:34:18;14.98;;;8.10;;
12425;SDS011;6277;49.824;9.562;2023-02-24T05:36:44;13.40;;;8.50;;
12425;SDS011;6277;49.824;9.562;2023-02-24T05:39:10;15.63;;;9.10;;
12425;SDS011;6277;49.824;9.562;2023-02-24T05:41:37;16.83;;;8.75;;
12425;SDS011;6277;49.824;9.562;2023-02-24T05:44:07;15.77;;;9.00;;
12425;SDS011;6277;49.824;9.562;2023-02-24T05:46:37;15.85;;;8.95;;
12425;SDS011;6277;49.824;9.562;2023-02-24T05:49:05;15.25;;;9.40;;
12425;SDS011;6277;49.824;9.562;2023-02-24T05:51:44;16.23;;;9.07;;
12425;SDS011;6277;49.824;9.562;2023-02-24T05:54:18;13.75;;;8.48;;
12425;SDS011;6277;49.824;9.562;2023-02-24T05:56:46;14.70;;;8.85;;
12425;SDS011;6277;49.824;9.562;2023-02-24T05:59:12;14.90;;;8.77;;
12425;SDS011;6277;49.824;9.562;2023-02-24T06:01:42;14.95;;;8.60;;
12425;SDS011;6277;49.824;9.562;2023-02-24T06:04:11;18.00;;;9.23;;
12425;SDS011;6277;49.824;9.562;2023-02-24T06:06:45;16.45;;;8.35;;
12425;SDS011;6277;49.824;9.562;2023-02-24T06:09:16;15.60;;;9.05;;
12425;SDS011;6277;49.824;9.562;2023-02-24T06:11:43;16.02;;;8.48;;
12425;SDS011;6277;49.824;9.562;2023-02-24T06:14:11;15.60;;;9.00;;
12425;SDS011;6277;49.824;9.562;2023-02-24T06:16:38;17.60;;;8.82;;
12425;SDS011;6277;49.824;9.562;2023-02-24T06:19:05;16.50;;;9.48;;
12425;SDS011;6277;49.824;9.562;2023-02-24T06:21:35;20.13;;;9.57;;
12425;SDS011;6277;49.824;9.562;2023-02-24T06:24:05;14.80;;;7.97;;
12425;SDS011;6277;49.824;9.562;2023-02-24T06:26:38;17.02;;;9.05;;
12425;SDS011;6277;49.824;9.562;2023-02-24T06:29:09;15.80;;;8.73;;
12425;SDS011;6277;49.824;9.562;2023-02-24T06:31:37;15.13;;;8.32;;
12425;SDS011;6277;49.824;9.562;2023-02-24T06:34:02;16.45;;;8.65;;
12425;SDS011;6277;49.824;9.562;2023-02-24T06:36:28;17.10;;;8.82;;
12425;SDS011;6277;49.824;9.562;2023-02-24T06:38:53;15.88;;;8.60;;
12425;SDS011;6277;49.824;9.562;2023-02-24T06:41:20;15.70;;;8.43;;
12425;SDS011;6277;49.824;9.562;2023-02-24T06:43:46;14.05;;;8.52;;
12425;SDS011;6277;49.824;9.562;2023-02-24T06:46:13;14.20;;;8.52;;
12425;SDS011;6277;49.824;9.562;2023-02-24T06:48:40;15.30;;;8.55;;
12425;SDS011;6277;49.824;9.562;2023-02-24T06:51:10;14.48;;;8.02;;
12425;SDS011;6277;49.824;9.562;2023-02-24T06:53:40;15.60;;;8.88;;
12425;SDS011;6277;49.824;9.562;2023-02-24T06:56:13;21.85;;;9.50;;
12425;SDS011;6277;49.824;9.562;2023-02-24T06:58:43;16.30;;;9.63;;
12425;SDS011;6277;49.824;9.562;2023-02-24T07:01:15;17.92;;;9.93;;
12425;SDS011;6277;49.824;9.562;2023-02-24T07:03:42;17.65;;;10.18;;
12425;SDS011;6277;49.824;9.562;2023-02-24T07:06:27;19.27;;;10.75;;
12425;SDS011;6277;49.824;9.562;2023-02-24T07:08:56;19.38;;;10.52;;
12425;SDS011;6277;49.824;9.562;2023-02-24T07:11:23;19.40;;;9.98;;
12425;SDS011;6277;49.824;9.562;2023-02-24T07:13:48;23.27;;;10.93;;
12425;SDS011;6277;49.824;9.562;2023-02-24T07:16:16;18.45;;;10.40;;
12425;SDS011;6277;49.824;9.562;2023-02-24T07:18:43;20.95;;;10.98;;
12425;SDS011;6277;49.824;9.562;2023-02-24T07:21:12;20.20;;;11.05;;
12425;SDS011;6277;49.824;9.562;2023-02-24T07:23:40;20.10;;;10.80;;
12425;SDS011;6277;49.824;9.562;2023-02-24T07:26:12;19.67;;;10.27;;
12425;SDS011;6277;49.824;9.562;2023-02-24T07:28:39;21.35;;;11.43;;
12425;SDS011;6277;49.824;9.562;2023-02-24T07:31:07;20.48;;;10.98;;
12425;SDS011;6277;49.824;9.562;2023-02-24T07:33:38;18.65;;;10.32;;
12425;SDS011;6277;49.824;9.562;2023-02-24T07:36:04;22.67;;;11.13;;
12425;SDS011;6277;49.824;9.562;2023-02-24T07:38:34;20.65;;;10.50;;
12425;SDS011;6277;49.824;9.562;2023-02-24T07:41:01;21.40;;;10.73;;
12425;SDS011;6277;49.824;9.562;2023-02-24T07:43:27;18.85;;;9.98;;
12425;SDS011;6277;49.824;9.562;2023-02-24T07:45:52;19.75;;;10.32;;
12425;SDS011;6277;49.824;9.562;2023-02-24T07:48:18;20.08;;;10.93;;
12425;SDS011;6277;49.824;9.562;2023-02-24T07:50:45;16.77;;;9.70;;
12425;SDS011;6277;49.824;9.562;2023-02-24T07:53:12;19.48;;;10.05;;
12425;SDS011;6277;49.824;9.562;2023-02-24T07:55:40;18.02;;;9.68;;
12425;SDS011;6277;49.824;9.562;2023-02-24T07:58:06;18.38;;;10.13;;
12425;SDS011;6277;49.824;9.562;2023-02-24T08:00:31;17.35;;;9.82;;
12425;SDS011;6277;49.824;9.562;2023-02-24T08:03:14;16.95;;;9.88;;
12425;SDS011;6277;49.824;9.562;2023-02-24T08:05:39;19.08;;;10.27;;
12425;SDS011;6277;49.824;9.562;2023-02-24T08:08:07;22.25;;;11.65;;
12425;SDS011;6277;49.824;9.562;2023-02-24T08:10:33;22.63;;;11.63;;
12425;SDS011;6277;49.824;9.562;2023-02-24T08:13:01;19.83;;;11.25;;
12425;SDS011;6277;49.824;9.562;2023-02-24T08:15:28;20.58;;;10.70;;
12425;SDS011;6277;49.824;9.562;2023-02-24T08:17:57;17.17;;;10.00;;
12425;SDS011;6277;49.824;9.562;2023-02-24T08:20:25;19.70;;;10.25;;
12425;SDS011;6277;49.824;9.562;2023-02-24T08:22:53;17.75;;;10.10;;
12425;SDS011;6277;49.824;9.562;2023-02-24T08:25:21;19.08;;;10.50;;
12425;SDS011;6277;49.824;9.562;2023-02-24T08:27:50;20.20;;;10.80;;
12425;SDS011;6277;49.824;9.562;2023-02-24T08:30:21;19.50;;;11.02;;
12425;SDS011;6277;49.824;9.562;2023-02-24T08:32:49;17.70;;;10.23;;
12425;SDS011;6277;49.824;9.562;2023-02-24T08:35:21;20.30;;;10.65;;
12425;SDS011;6277;49.824;9.562;2023-02-24T08:37:53;18.98;;;10.98;;
12425;SDS011;6277;49.824;9.562;2023-02-24T08:42:57;21.45;;;11.23;;
12425;SDS011;6277;49.824;9.562;2023-02-24T08:45:31;20.13;;;10.10;;
12425;SDS011;6277;49.824;9.562;2023-02-24T08:47:58;18.67;;;10.27;;
12425;SDS011;6277;49.824;9.562;2023-02-24T08:50:42;19.25;;;10.80;;
12425;SDS011;6277;49.824;9.562;2023-02-24T08:53:12;21.55;;;11.30;;
12425;SDS011;6277;49.824;9.562;2023-02-24T08:55:45;20.13;;;10.57;;
12425;SDS011;6277;49.824;9.562;2023-02-24T08:58:18;18.50;;;10.88;;
12425;SDS011;6277;49.824;9.562;2023-02-24T09:00:50;18.80;;;9.93;;
12425;SDS011;6277;49.824;9.562;2023-02-24T09:03:19;18.70;;;9.88;;
12425;SDS011;6277;49.824;9.562;2023-02-24T09:08:28;19.95;;;10.27;;
12425;SDS011;6277;49.824;9.562;2023-02-24T09:10:57;20.40;;;10.10;;
12425;SDS011;6277;49.824;9.562;2023-02-24T09:13:23;19.50;;;10.82;;
12425;SDS011;6277;49.824;9.562;2023-02-24T09:15:57;19.50;;;10.68;;
12425;SDS011;6277;49.824;9.562;2023-02-24T09:18:26;18.90;;;11.18;;
12425;SDS011;6277;49.824;9.562;2023-02-24T09:20:57;17.70;;;10.48;;
12425;SDS011;6277;49.824;9.562;2023-02-24T09:23:41;20.27;;;10.60;;
12425;SDS011;6277;49.824;9.562;2023-02-24T09:26:10;20.83;;;10.90;;
12425;SDS011;6277;49.824;9.562;2023-02-24T09:28:37;20.55;;;11.40;;
12425;SDS011;6277;49.824;9.562;2023-02-24T09:31:18;21.65;;;11.13;;
12425;SDS011;6277;49.824;9.562;2023-02-24T09:33:47;19.50;;;10.88;;
12425;SDS011;6277;49.824;9.562;2023-02-24T09:36:21;18.08;;;10.50;;
12425;SDS011;6277;49.824;9.562;2023-02-24T09:38:54;20.27;;;10.77;;
12425;SDS011;6277;49.824;9.562;2023-02-24T09:41:30;21.85;;;11.95;;
12425;SDS011;6277;49.824;9.562;2023-02-24T09:44:00;22.42;;;11.73;;
12425;SDS011;6277;49.824;9.562;2023-02-24T09:46:29;22.40;;;12.20;;
12425;SDS011;6277;49.824;9.562;2023-02-24T09:49:04;25.48;;;13.02;;
12425;SDS011;6277;49.824;9.562;2023-02-24T09:51:38;21.00;;;11.40;;
12425;SDS011;6277;49.824;9.562;2023-02-24T09:54:10;21.90;;;11.98;;
12425;SDS011;6277;49.824;9.562;2023-02-24T09:56:50;18.50;;;10.88;;
12425;SDS011;6277;49.824;9.562;2023-02-24T09:59:39;19.20;;;11.25;;
12425;SDS011;6277;49.824;9.562;2023-02-24T10:02:51;19.50;;;11.48;;
12425;SDS011;6277;49.824;9.562;2023-02-24T10:05:29;19.88;;;11.02;;
12425;SDS011;6277;49.824;9.562;2023-02-24T10:08:03;20.42;;;11.40;;
12425;SDS011;6277;49.824;9.562;2023-02-24T10:10:37;22.58;;;12.18;;
12425;SDS011;6277;49.824;9.562;2023-02-24T10:13:15;19.35;;;11.32;;
12425;SDS011;6277;49.824;9.562;2023-02-24T10:15:54;20.10;;;11.25;;
12425;SDS011;6277;49.824;9.562;2023-02-24T10:26:28;18.17;;;10.27;;
12425;SDS011;6277;49.824;9.562;2023-02-24T10:29:21;16.98;;;9.75;;
12425;SDS011;6277;49.824;9.562;2023-02-24T10:32:10;16.88;;;9.80;;
12425;SDS011;6277;49.824;9.562;2023-02-24T10:34:55;15.63;;;9.75;;
12425;SDS011;6277;49.824;9.562;2023-02-24T10:37:21;16.02;;;9.88;;
12425;SDS011;6277;49.824;9.562;2023-02-24T10:39:49;14.45;;;8.55;;
12425;SDS011;6277;49.824;9.562;2023-02-24T10:42:22;16.63;;;9.93;;
12425;SDS011;6277;49.824;9.562;2023-02-24T10:45:03;14.68;;;8.93;;
12425;SDS011;6277;49.824;9.562;2023-02-24T10:47:41;17.10;;;10.48;;
12425;SDS011;6277;49.824;9.562;2023-02-24T10:50:42;19.98;;;9.88;;
12425;SDS011;6277;49.824;9.562;2023-02-24T10:53:11;16.10;;;9.02;;
12425;SDS011;6277;49.824;9.562;2023-02-24T10:56:02;14.15;;;8.88;;
12425;SDS011;6277;49.824;9.562;2023-02-24T10:59:06;14.43;;;9.00;;
12425;SDS011;6277;49.824;9.562;2023-02-24T11:05:19;14.73;;;8.93;;
12425;SDS011;6277;49.824;9.562;2023-02-24T11:08:20;19.42;;;9.05;;
12425;SDS011;6277;49.824;9.562;2023-02-24T11:11:19;12.98;;;8.00;;
12425;SDS011;6277;49.824;9.562;2023-02-24T11:14:00;14.52;;;8.45;;
12425;SDS011;6277;49.824;9.562;2023-02-24T11:16:46;13.80;;;8.40;;
12425;SDS011;6277;49.824;9.562;2023-02-24T11:19:31;14.32;;;8.60;;
12425;SDS011;6277;49.824;9.562;2023-02-24T11:22:05;14.30;;;8.75;;
12425;SDS011;6277;49.824;9.562;2023-02-24T11:24:35;15.32;;;8.25;;
12425;SDS011;6277;49.824;9.562;2023-02-24T11:27:02;14.35;;;8.65;;
12425;SDS011;6277;49.824;9.562;2023-02-24T11:32:47;13.43;;;7.80;;
12425;SDS011;6277;49.824;9.562;2023-02-24T11:35:30;18.27;;;8.90;;
12425;SDS011;6277;49.824;9.562;2023-02-24T11:38:18;13.25;;;7.75;;
12425;SDS011;6277;49.824;9.562;2023-02-24T11:43:44;13.63;;;7.25;;
12425;SDS011;6277;49.824;9.562;2023-02-24T11:46:19;14.70;;;8.70;;
12425;SDS011;6277;49.824;9.562;2023-02-24T11:48:53;13.20;;;7.57;;
12425;SDS011;6277;49.824;9.562;2023-02-24T11:51:25;12.95;;;7.78;;
12425;SDS011;6277;49.824;9.562;2023-02-24T11:53:55;11.43;;;7.82;;
12425;SDS011;6277;49.824;9.562;2023-02-24T11:56:44;12.10;;;7.60;;
12425;SDS011;6277;49.824;9.562;2023-02-24T11:59:18;13.40;;;8.18;;
12425;SDS011;6277;49.824;9.562;2023-02-24T12:01:55;13.52;;;8.15;;
12425;SDS011;6277;49.824;9.562;2023-02-24T12:07:15;14.50;;;8.30;;
12425;SDS011;6277;49.824;9.562;2023-02-24T12:12:29;13.30;;;8.15;;
12425;SDS011;6277;49.824;9.562;2023-02-24T12:15:24;13.80;;;8.13;;
12425;SDS011;6277;49.824;9.562;2023-02-24T12:21:11;15.00;;;9.30;;
12425;SDS011;6277;49.824;9.562;2023-02-24T12:23:47;15.93;;;8.32;;
12425;SDS011;6277;49.824;9.562;2023-02-24T12:26:38;15.43;;;8.85;;
12425;SDS011;6277;49.824;9.562;2023-02-24T12:35:12;15.15;;;8.60;;
12425;SDS011;6277;49.824;9.562;2023-02-24T12:48:50;15.65;;;9.75;;
12425;SDS011;6277;49.824;9.562;2023-02-24T12:51:25;15.40;;;8.60;;
12425;SDS011;6277;49.824;9.562;2023-02-24T12:56:52;14.30;;;9.38;;
12425;SDS011;6277;49.824;9.562;2023-02-24T12:59:23;15.65;;;9.52;;
12425;SDS011;6277;49.824;9.562;2023-02-24T13:02:05;13.52;;;8.80;;
12425;SDS011;6277;49.824;9.562;2023-02-24T13:07:51;17.38;;;8.90;;
12425;SDS011;6277;49.824;9.562;2023-02-24T13:10:43;15.63;;;8.90;;
12425;SDS011;6277;49.824;9.562;2023-02-24T13:13:22;14.93;;;9.23;;
12425;SDS011;6277;49.824;9.562;2023-02-24T13:16:10;16.15;;;9.88;;
12425;SDS011;6277;49.824;9.562;2023-02-24T13:18:36;15.95;;;9.73;;
12425;SDS011;6277;49.824;9.562;2023-02-24T13:21:08;14.52;;;8.95;;
12425;SDS011;6277;49.824;9.562;2023-02-24T13:23:52;15.45;;;9.35;;
12425;SDS011;6277;49.824;9.562;2023-02-24T13:26:23;13.68;;;8.45;;
12425;SDS011;6277;49.824;9.562;2023-02-24T13:29:09;13.90;;;8.80;;
12425;SDS011;6277;49.824;9.562;2023-02-24T13:31:47;16.20;;;9.25;;
12425;SDS011;6277;49.824;9.562;2023-02-24T13:34:28;14.10;;;8.45;;
12425;SDS011;6277;49.824;9.562;2023-02-24T13:37:12;13.73;;;8.23;;
12425;SDS011;6277;49.824;9.562;2023-02-24T13:39:38;11.38;;;7.40;;
12425;SDS011;6277;49.824;9.562;2023-02-24T13:50:39;12.80;;;7.47;;
12425;SDS011;6277;49.824;9.562;2023-02-24T14:01:09;11.95;;;8.05;;
12425;SDS011;6277;49.824;9.562;2023-02-24T14:06:12;14.02;;;7.82;;
12425;SDS011;6277;49.824;9.562;2023-02-24T14:08:49;11.85;;;7.53;;
12425;SDS011;6277;49.824;9.562;2023-02-24T14:11:18;13.10;;;7.47;;
12425;SDS011;6277;49.824;9.562;2023-02-24T14:13:50;12.23;;;7.55;;
12425;SDS011;6277;49.824;9.562;2023-02-24T14:16:21;14.43;;;8.27;;
12425;SDS011;6277;49.824;9.562;2023-02-24T14:18:57;12.13;;;7.55;;
12425;SDS011;6277;49.824;9.562;2023-02-24T14:21:29;12.52;;;7.35;;
12425;SDS011;6277;49.824;9.562;2023-02-24T14:23:57;12.05;;;7.93;;
12425;SDS011;6277;49.824;9.562;2023-02-24T14:26:25;13.52;;;8.20;;
12425;SDS011;6277;49.824;9.562;2023-02-24T14:28:54;13.73;;;8.10;;
12425;SDS011;6277;49.824;9.562;2023-02-24T14:31:22;14.68;;;8.48;;
12425;SDS011;6277;49.824;9.562;2023-02-24T14:34:11;12.05;;;7.75;;
12425;SDS011;6277;49.824;9.562;2023-02-24T14:36:42;13.57;;;7.97;;
12425;SDS011;6277;49.824;9.562;2023-02-24T14:41:44;13.07;;;8.00;;
12425;SDS011;6277;49.824;9.562;2023-02-24T14:46:51;13.30;;;7.88;;
12425;SDS011;6277;49.824;9.562;2023-02-24T14:49:20;13.40;;;7.95;;
12425;SDS011;6277;49.824;9.562;2023-02-24T14:51:52;12.02;;;7.32;;
12425;SDS011;6277;49.824;9.562;2023-02-24T14:54:44;12.85;;;7.78;;
12425;SDS011;6277;49.824;9.562;2023-02-24T14:57:24;10.80;;;6.78;;
12425;SDS011;6277;49.824;9.562;2023-02-24T15:00:03;12.40;;;6.90;;
12425;SDS011;6277;49.824;9.562;2023-02-24T15:02:35;11.95;;;6.70;;
12425;SDS011;6277;49.824;9.562;2023-02-24T15:05:06;13.27;;;7.78;;
12425;SDS011;6277;49.824;9.562;2023-02-24T15:07:33;16.35;;;7.32;;
12425;SDS011;6277;49.824;9.562;2023-02-24T15:10:00;11.10;;;6.78;;
12425;SDS011;6277;49.824;9.562;2023-02-24T15:14:55;9.77;;;5.63;;
12425;SDS011;6277;49.824;9.562;2023-02-24T15:17:32;11.00;;;6.68;;
12425;SDS011;6277;49.824;9.562;2023-02-24T15:20:23;12.52;;;6.28;;
12425;SDS011;6277;49.824;9.562;2023-02-24T15:22:50;9.82;;;5.65;;
12425;SDS011;6277;49.824;9.562;2023-02-24T15:27:57;10.68;;;6.35;;
12425;SDS011;6277;49.824;9.562;2023-02-24T15:32:57;9.55;;;5.72;;
12425;SDS011;6277;49.824;9.562;2023-02-24T15:35:47;8.52;;;5.40;;
12425;SDS011;6277;49.824;9.562;2023-02-24T15:38:22;9.45;;;5.82;;
12425;SDS011;6277;49.824;9.562;2023-02-24T15:40:53;10.68;;;6.22;;
12425;SDS011;6277;49.824;9.562;2023-02-24T15:43:32;7.90;;;5.28;;
12425;SDS011;6277;49.824;9.562;2023-02-24T15:46:11;6.38;;;4.15;;
12425;SDS011;6277;49.824;9.562;2023-02-24T15:48:47;7.20;;;4.72;;
12425;SDS011;6277;49.824;9.562;2023-02-24T15:51:24;8.98;;;5.38;;
12425;SDS011;6277;49.824;9.562;2023-02-24T15:53:56;7.68;;;4.68;;
12425;SDS011;6277;49.824;9.562;2023-02-24T15:56:24;8.38;;;4.90;;
12425;SDS011;6277;49.824;9.562;2023-02-24T15:58:49;7.57;;;4.95;;
12425;SDS011;6277;49.824;9.562;2023-02-24T16:01:15;10.00;;;5.28;;
12425;SDS011;6277;49.824;9.562;2023-02-24T16:03:40;8.85;;;5.28;;
12425;SDS011;6277;49.824;9.562;2023-02-24T16:06:08;8.52;;;5.35;;
12425;SDS011;6277;49.824;9.562;2023-02-24T16:08:41;8.82;;;5.18;;
12425;SDS011;6277;49.824;9.562;2023-02-24T16:11:09;8.75;;;5.20;;
12425;SDS011;6277;49.824;9.562;2023-02-24T16:13:35;9.32;;;5.07;;
12425;SDS011;6277;49.824;9.562;2023-02-24T16:16:01;8.30;;;4.72;;
12425;SDS011;6277;49.824;9.562;2023-02-24T16:18:29;8.63;;;5.32;;
12425;SDS011;6277;49.824;9.562;2023-02-24T16:20:54;11.30;;;6.57;;
12425;SDS011;6277;49.824;9.562;2023-02-24T16:23:21;10.35;;;6.22;;
12425;SDS011;6277;49.824;9.562;2023-02-24T16:25:49;7.20;;;5.00;;
12425;SDS011;6277;49.824;9.562;2023-02-24T16:28:19;8.27;;;5.35;;
12425;SDS011;6277;49.824;9.562;2023-02-24T16:30:46;8.38;;;4.80;;
12425;SDS011;6277;49.824;9.562;2023-02-24T16:33:14;7.43;;;4.72;;
12425;SDS011;6277;49.824;9.562;2023-02-24T16:35:41;8.57;;;5.18;;
12425;SDS011;6277;49.824;9.562;2023-02-24T16:38:11;8.15;;;5.15;;
12425;SDS011;6277;49.824;9.562;2023-02-24T16:40:39;8.60;;;5.05;;
12425;SDS011;6277;49.824;9.562;2023-02-24T16:43:07;9.65;;;5.68;;
12425;SDS011;6277;49.824;9.562;2023-02-24T16:45:32;9.77;;;5.20;;
12425;SDS011;6277;49.824;9.562;2023-02-24T16:47:59;7.97;;;5.35;;
12425;SDS011;6277;49.824;9.562;2023-02-24T16:50:30;10.18;;;5.30;;
12425;SDS011;6277;49.824;9.562;2023-02-24T16:52:58;9.02;;;5.05;;
12425;SDS011;6277;49.824;9.562;2023-02-24T16:55:24;9.38;;;5.35;;
12425;SDS011;6277;49.824;9.562;2023-02-24T16:57:49;8.77;;;5.40;;
12425;SDS011;6277;49.824;9.562;2023-02-24T17:00:15;10.80;;;5.55;;
12425;SDS011;6277;49.824;9.562;2023-02-24T17:02:42;8.80;;;5.63;;
12425;SDS011;6277;49.824;9.562;2023-02-24T17:05:16;9.80;;;5.78;;
12425;SDS011;6277;49.824;9.562;2023-02-24T17:07:45;9.95;;;5.57;;
12425;SDS011;6277;49.824;9.562;2023-02-24T17:10:12;12.88;;;5.65;;
12425;SDS011;6277;49.824;9.562;2023-02-24T17:12:38;7.97;;;5.10;;
12425;SDS011;6277;49.824;9.562;2023-02-24T17:15:03;10.40;;;5.97;;
12425;SDS011;6277;49.824;9.562;2023-02-24T17:17:29;10.27;;;6.07;;
12425;SDS011;6277;49.824;9.562;2023-02-24T17:19:55;11.68;;;6.07;;
12425;SDS011;6277;49.824;9.562;2023-02-24T17:22:20;11.95;;;6.13;;